Time;durP1;ratioP1;P1;durP2;ratioP2;P2;SDS_P1;SDS_P2;PMS_P1;PMS_P2;Temp;Humidity;BMP_temperature;BMP_pressure;BME280_temperature;BME280_humidity;BME280_pressure;Samples;Min_cycle;Max_cycle;Signal;HPM_P1;HPM_P2
2023/10/17 16:42:33;;;;;;;1.83;1.10;;;28.40;16.30;;;;;;5085680;27;20677;-49
2023/10/17 16:44:59;;;;;;;2.33;2.00;;;20.70;23.60;;;;;;5069965;28;20411;-52
2023/10/17 16:47:25;;;;;;;4.50;1.77;;;19.50;24.40;;;;;;5071719;28;20242;-52
2023/10/17 16:49:55;;;;;;;1.50;0.90;;;18.80;26.20;;;;;;5071251;28;20173;-50
2023/10/17 16:52:22;;;;;;;1.10;0.50;;;18.10;26.90;;;;;;5071488;28;20426;-51
2023/10/17 16:54:48;;;;;;;1.48;0.88;;;17.60;27.70;;;;;;5071830;28;20642;-51
2023/10/17 16:57:14;;;;;;;2.40;0.93;;;17.20;29.30;;;;;;5071515;28;20168;-51
2023/10/17 16:59:40;;;;;;;1.20;0.80;;;16.80;29.30;;;;;;5071476;28;20204;-49
2023/10/17 17:02:07;;;;;;;2.27;1.20;;;16.50;28.90;;;;;;5070913;28;20539;-49
2023/10/17 17:04:33;;;;;;;2.33;1.05;;;16.30;29.20;;;;;;5071030;28;20407;-52
2023/10/17 17:06:59;;;;;;;1.20;0.90;;;16.10;30.40;;;;;;5070900;28;20187;-52
2023/10/17 17:09:27;;;;;;;8.77;3.97;;;15.80;30.70;;;;;;5071004;28;20690;-49
2023/10/17 17:11:54;;;;;;;4.55;2.80;;;15.60;31.70;;;;;;5070044;28;20477;-51
2023/10/17 17:14:20;;;;;;;4.35;1.67;;;15.50;32.60;;;;;;5070634;28;20230;-50
2023/10/17 17:16:49;;;;;;;1.75;1.35;;;15.30;32.60;;;;;;5070157;28;20172;-50
2023/10/17 17:19:21;;;;;;;1.60;1.30;;;15.10;33.50;;;;;;5070199;28;20176;-49
2023/10/17 17:21:50;;;;;;;3.65;1.73;;;15.00;33.60;;;;;;5069486;28;20759;-52
2023/10/17 17:24:17;;;;;;;2.40;1.70;;;14.70;34.20;;;;;;5069892;28;20193;-52
2023/10/17 17:26:44;;;;;;;1.70;1.60;;;14.60;34.30;;;;;;5069891;28;20184;-50
2023/10/17 17:29:10;;;;;;;1.58;1.20;;;14.60;34.40;;;;;;5069820;28;20239;-50
2023/10/17 17:31:36;;;;;;;1.10;0.60;;;14.40;34.90;;;;;;5068962;28;20208;-51
2023/10/17 17:34:03;;;;;;;9.53;1.50;;;14.40;35.00;;;;;;5068994;28;20226;-49
2023/10/17 17:36:31;;;;;;;3.38;2.20;;;14.30;35.30;;;;;;5068672;28;20693;-49
2023/10/17 17:38:57;;;;;;;6.88;2.53;;;;;;;;;;5068828;28;20256;-51
2023/10/17 17:41:23;;;;;;;4.38;1.80;;;14.00;34.60;;;;;;5067182;28;20691;-52
2023/10/17 17:43:49;;;;;;;35.83;2.97;;;13.90;35.30;;;;;;5054937;28;20315;-50
2023/10/17 17:46:15;;;;;;;406.50;149.90;;;;;;;;;;5055080;28;20665;-52
2023/10/17 17:51:40;;;;;;;4.85;1.20;;;13.50;34.90;;;;;;5069402;28;20612;-48
2023/10/17 17:54:06;;;;;;;66.53;46.40;;;13.50;35.50;;;;;;5069878;28;20585;-52
2023/10/17 17:56:32;;;;;;;19.73;9.27;;;13.50;35.00;;;;;;5069740;28;20180;-48
2023/10/17 17:59:00;;;;;;;1.52;1.20;;;13.50;36.00;;;;;;5069725;28;20498;-53
2023/10/17 18:01:27;;;;;;;2.47;1.13;;;13.40;36.60;;;;;;5069168;28;20739;-51
2023/10/17 18:03:53;;;;;;;3.60;3.17;;;13.40;36.50;;;;;;5069661;28;20172;-49
2023/10/17 18:06:19;;;;;;;2.27;1.33;;;13.40;36.90;;;;;;5069532;28;20669;-50
2023/10/17 18:08:44;;;;;;;1.80;1.60;;;13.40;36.70;;;;;;5069658;28;20251;-52
2023/10/17 18:11:10;;;;;;;1.37;1.10;;;13.40;36.10;;;;;;5068970;28;20311;-50
2023/10/17 18:13:36;;;;;;;1.73;1.10;;;13.40;36.10;;;;;;5069247;28;20606;-52
2023/10/17 18:16:02;;;;;;;1.93;1.57;;;13.40;36.90;;;;;;5069623;28;20187;-51
2023/10/17 18:18:28;;;;;;;2.15;1.95;;;13.40;37.10;;;;;;5069358;28;20527;-49
2023/10/17 18:21:06;;;;;;;3.47;2.25;;;13.30;36.90;;;;;;5069030;28;20223;-50
2023/10/17 18:23:35;;;;;;;2.45;1.15;;;13.20;37.10;;;;;;5069367;28;20184;-51
2023/10/17 18:26:01;;;;;;;2.50;1.60;;;13.10;36.90;;;;;;5069351;28;20184;-49
2023/10/17 18:28:29;;;;;;;2.20;2.00;;;13.10;37.50;;;;;;5069097;28;20173;-48
2023/10/17 18:31:07;;;;;;;3.08;2.00;;;13.10;37.10;;;;;;5068954;28;20287;-53
2023/10/17 18:33:33;;;;;;;5.75;2.22;;;13.10;36.80;;;;;;5069099;28;20518;-52
2023/10/17 18:35:59;;;;;;;3.50;2.10;;;13.00;37.30;;;;;;5068900;28;20176;-50
2023/10/17 18:38:25;;;;;;;5.83;3.60;;;12.90;37.80;;;;;;5068790;28;20931;-50
2023/10/17 18:40:50;;;;;;;6.22;3.58;;;12.90;37.60;;;;;;5068418;28;20193;-51
2023/10/17 18:43:19;;;;;;;7.80;3.33;;;12.80;37.20;;;;;;5068859;28;20187;-49
2023/10/17 18:45:44;;;;;;;2.92;1.73;;;12.90;37.00;;;;;;5068955;28;20181;-50
2023/10/17 18:48:12;;;;;;;2.63;1.70;;;12.90;37.10;;;;;;5068701;28;20515;-49
2023/10/17 18:50:39;;;;;;;3.28;1.73;;;12.90;36.60;;;;;;5068400;28;20212;-50
2023/10/17 18:53:05;;;;;;;1.08;0.70;;;12.90;37.10;;;;;;5068459;28;20227;-49
2023/10/17 18:55:33;;;;;;;2.60;2.40;;;12.90;36.80;;;;;;5068456;28;20173;-52
2023/10/17 18:57:59;;;;;;;1.75;1.65;;;12.90;36.90;;;;;;5068540;28;20414;-51
2023/10/17 19:00:24;;;;;;;2.33;1.20;;;12.90;37.00;;;;;;5068359;28;20181;-50
2023/10/17 19:02:50;;;;;;;1.30;1.10;;;12.90;36.80;;;;;;5056303;28;20452;-50
2023/10/17 19:05:16;;;;;;;5.67;1.30;;;12.80;36.60;;;;;;5055411;28;20172;-50
2023/10/17 19:07:43;;;;;;;45.00;31.80;;;12.60;36.80;;;;;;5055120;28;20177;-53
2023/10/17 19:10:14;;;;;;;61.85;27.08;;;12.50;36.90;;;;;;5055344;28;20589;-49
2023/10/17 19:12:41;;;;;;;86.88;78.95;;;12.50;37.60;;;;;;5054866;28;20693;-50
2023/10/17 19:15:07;;;;;;;20.10;9.52;;;12.40;37.50;;;;;;5055250;28;20247;-52
2023/10/17 19:17:34;;;;;;;37.95;17.20;;;12.20;37.80;;;;;;5055389;28;20538;-53
2023/10/17 19:19:59;;;;;;;5.30;3.65;;;12.20;38.60;;;;;;5055382;28;20165;-49
2023/10/17 19:22:28;;;;;;;2.73;2.53;;;12.00;38.80;;;;;;5054802;28;20208;-49
2023/10/17 19:24:53;;;;;;;44.35;32.65;;;11.90;38.20;;;;;;5055511;28;20185;-53
2023/10/17 19:27:19;;;;;;;4.37;1.70;;;11.90;39.10;;;;;;5055142;28;20570;-53
2023/10/17 19:29:45;;;;;;;2.00;1.80;;;11.90;39.00;;;;;;5055214;28;20193;-50
2023/10/17 19:32:12;;;;;;;3.53;2.27;;;11.90;38.80;;;;;;5054806;28;20228;-52
2023/10/17 19:34:43;;;;;;;1.88;1.33;;;12.00;38.80;;;;;;5055074;28;20215;-50
2023/10/17 19:37:14;;;;;;;1.35;0.98;;;12.00;38.50;;;;;;5055369;28;20265;-49
2023/10/17 19:39:41;;;;;;;3.25;1.85;;;12.00;38.40;;;;;;5055142;28;20181;-52
2023/10/17 19:42:07;;;;;;;33.42;26.50;;;;;;;;;;5055032;28;20276;-49
2023/10/17 19:44:33;;;;;;;257.42;129.32;;;11.70;37.80;;;;;;5055409;28;20169;-49
2023/10/17 19:46:59;;;;;;;1.50;1.17;;;11.80;38.60;;;;;;5055429;28;20180;-51
2023/10/17 19:49:25;;;;;;;461.67;248.50;;;;;;;;;;5054946;28;20507;-49
2023/10/17 19:51:51;;;;;;;234.45;89.18;;;;;;;;;;5054742;28;20189;-50
2023/10/17 19:54:17;;;;;;;397.17;201.43;;;;;;;;;;5055400;28;20170;-50
2023/10/17 19:56:44;;;;;;;445.45;303.45;;;;;;;;;;5055157;28;20177;-52
2023/10/17 19:59:10;;;;;;;510.05;443.10;;;;;;;;;;5055469;28;20172;-51
